Time;durP1;ratioP1;P1;durP2;ratioP2;P2;SDS_P1;SDS_P2;PMS_P1;PMS_P2;Temp;Humidity;BMP_temperature;BMP_pressure;BME280_temperature;BME280_humidity;BME280_pressure;Samples;Min_cycle;Max_cycle;Signal;HPM_P1;HPM_P2
2022/11/27 06:03:11;;;;;;;;;;;19.50;99.90;;;;;;5485879;23;20008;-83
2022/11/27 06:05:38;;;;;;;;;;;19.50;99.90;;;;;;4978070;28;19926;-83
2022/11/27 06:08:05;;;;;;;;;;;19.50;99.90;;;;;;4978569;28;19926;-83
2022/11/27 06:10:31;;;;;;;;;;;19.50;99.90;;;;;;4978503;28;19930;-83
2022/11/27 06:12:58;;;;;;;;;;;19.50;99.90;;;;;;4977465;28;19933;-83
2022/11/27 06:15:24;;;;;;;;;;;19.20;99.90;;;;;;4977935;28;19933;-83
2022/11/27 06:17:51;;;;;;;;;;;19.40;99.90;;;;;;4978635;28;19936;-83
2022/11/27 06:20:20;;;;;;;;;;;19.80;99.90;;;;;;4978259;28;19926;-83
2022/11/27 06:22:46;;;;;;;;;;;19.50;99.90;;;;;;4978435;28;19989;-83
2022/11/27 06:25:13;;;;;;;;;;;19.70;99.90;;;;;;4978064;28;19933;-83
2022/11/27 06:27:39;;;;;;;;;;;19.40;99.90;;;;;;4978052;28;19926;-83
2022/11/27 06:30:07;;;;;;;;;;;19.50;99.90;;;;;;4978207;28;19926;-83
2022/11/27 06:32:33;;;;;;;;;;;19.50;99.90;;;;;;4977973;28;19926;-83
2022/11/27 06:35:00;;;;;;;;;;;19.40;99.90;;;;;;4977742;28;19933;-83
2022/11/27 06:37:28;;;;;;;;;;;19.50;99.90;;;;;;4977637;28;19926;-83
2022/11/27 06:39:54;;;;;;;;;;;19.50;99.90;;;;;;4977760;28;20289;-83
2022/11/27 06:42:21;;;;;;;;;;;19.70;99.90;;;;;;4977524;28;19926;-83
2022/11/27 06:44:48;;;;;;;;;;;19.50;99.90;;;;;;4977255;28;19926;-83
2022/11/27 06:47:14;;;;;;;;;;;19.40;99.90;;;;;;4977297;28;19934;-83
2022/11/27 06:49:41;;;;;;;;;;;19.50;99.90;;;;;;4976838;28;20408;-83
2022/11/27 06:52:07;;;;;;;;;;;19.70;99.90;;;;;;4977177;28;19926;-83
2022/11/27 06:54:35;;;;;;;;;;;19.40;99.90;;;;;;4977136;28;19930;-83
2022/11/27 06:57:02;;;;;;;;;;;19.30;99.90;;;;;;4977134;28;19930;-83
2022/11/27 06:59:28;;;;;;;;;;;19.40;99.90;;;;;;4977639;28;19926;-83
2022/11/27 07:01:55;;;;;;;;;;;19.40;99.90;;;;;;4977790;28;20281;-83
2022/11/27 07:04:22;;;;;;;;;;;19.40;99.90;;;;;;4979264;28;19937;-83
2022/11/27 07:06:48;;;;;;;;;;;19.10;99.90;;;;;;4979299;28;19933;-83
2022/11/27 07:09:15;;;;;;;;;;;19.50;99.90;;;;;;4980568;28;20301;-83
2022/11/27 07:11:43;;;;;;;;;;;19.50;99.90;;;;;;4981110;28;19937;-83
2022/11/27 07:14:09;;;;;;;;;;;19.50;99.90;;;;;;4981023;28;19932;-83
2022/11/27 07:16:36;;;;;;;;;;;19.40;99.90;;;;;;4981228;28;19926;-83
2022/11/27 07:19:04;;;;;;;;;;;19.20;99.90;;;;;;4978703;28;19926;-83
2022/11/27 07:21:31;;;;;;;;;;;19.40;99.90;;;;;;4978675;28;19926;-83
2022/11/27 07:23:57;;;;;;;;;;;19.40;99.90;;;;;;4977157;28;19934;-83
2022/11/27 07:26:25;;;;;;;;;;;19.40;99.90;;;;;;4978322;28;19927;-83
2022/11/27 07:28:53;;;;;;;;;;;18.80;99.90;;;;;;4978917;28;19930;-83
2022/11/27 07:31:20;;;;;;;;;;;19.30;99.90;;;;;;4979429;28;20394;-84
2022/11/27 07:33:47;;;;;;;;;;;19.40;99.90;;;;;;4980165;28;19933;-84
2022/11/27 07:36:15;;;;;;;;;;;19.40;99.90;;;;;;4980096;28;20444;-84
2022/11/27 07:38:41;;;;;;;;;;;19.40;99.90;;;;;;4980878;28;19932;-84
2022/11/27 07:41:08;;;;;;;;;;;19.40;99.90;;;;;;4979213;28;19934;-84
2022/11/27 07:43:35;;;;;;;;;;;19.60;99.90;;;;;;4978828;28;19932;-84
2022/11/27 07:46:04;;;;;;;;;;;19.10;99.90;;;;;;4978589;28;19930;-84
2022/11/27 07:48:31;;;;;;;;;;;19.40;99.90;;;;;;4980025;28;19959;-84
2022/11/27 07:50:58;;;;;;;;;;;19.40;99.90;;;;;;4978299;28;19926;-83
2022/11/27 07:53:24;;;;;;;;;;;18.70;99.90;;;;;;4979084;28;19932;-84
2022/11/27 07:55:51;;;;;;;;;;;19.20;99.90;;;;;;4979298;28;19926;-83
2022/11/27 07:58:17;;;;;;;;;;;19.40;99.90;;;;;;4980477;28;19926;-84
2022/11/27 08:00:44;;;;;;;;;;;18.70;99.90;;;;;;4981078;28;20309;-85
2022/11/27 08:03:12;;;;;;;;;;;19.40;99.90;;;;;;4979794;28;19930;-85
2022/11/27 08:05:38;;;;;;;;;;;19.10;99.90;;;;;;4975808;28;20390;-86
2022/11/27 08:08:05;;;;;;;;;;;19.70;99.90;;;;;;4976226;28;19933;-85
2022/11/27 08:10:34;;;;;;;;;;;19.40;99.90;;;;;;4980332;28;19930;-85
2022/11/27 08:13:01;;;;;;;;;;;19.60;99.90;;;;;;4981234;28;20313;-83
2022/11/27 08:15:27;;;;;;;;;;;18.80;99.90;;;;;;4980256;28;19932;-84
2022/11/27 08:17:54;;;;;;;;;;;18.70;99.90;;;;;;4980677;28;20005;-83
2022/11/27 08:20:22;;;;;;;;;;;19.30;99.90;;;;;;4979681;28;19926;-84
2022/11/27 08:22:49;;;;;;;;;;;19.40;99.90;;;;;;4980918;28;19933;-82
2022/11/27 08:25:16;;;;;;;;;;;19.40;99.90;;;;;;4983752;28;19942;-83
2022/11/27 08:27:42;;;;;;;;;;;19.40;99.90;;;;;;4983727;28;20294;-83
2022/11/27 08:30:10;;;;;;;;;;;19.60;99.90;;;;;;4983562;28;20413;-83
2022/11/27 08:32:38;;;;;;;;;;;19.40;99.90;;;;;;4982171;28;19930;-83
2022/11/27 08:35:05;;;;;;;;;;;19.40;99.90;;;;;;4982282;28;19932;-82
2022/11/27 08:37:33;;;;;;;;;;;19.40;99.90;;;;;;4980527;28;19933;-83
2022/11/27 08:39:59;;;;;;;;;;;19.30;99.90;;;;;;4981255;28;19926;-83
2022/11/27 08:42:26;;;;;;;;;;;19.40;99.90;;;;;;4981267;28;19926;-82
2022/11/27 08:44:52;;;;;;;;;;;19.40;99.90;;;;;;4981011;28;19930;-85
2022/11/27 08:47:19;;;;;;;;;;;19.90;99.90;;;;;;4981700;28;20301;-83
2022/11/27 08:49:46;;;;;;;;;;;19.40;99.90;;;;;;4982253;28;19926;-84
2022/11/27 08:52:12;;;;;;;;;;;19.50;99.90;;;;;;4980901;28;19926;-83
2022/11/27 08:54:40;;;;;;;;;;;19.90;99.90;;;;;;4980615;28;20393;-84
2022/11/27 08:57:07;;;;;;;;;;;19.60;99.90;;;;;;4978451;28;19926;-84
2022/11/27 08:59:33;;;;;;;;;;;20.10;99.90;;;;;;4977425;28;20390;-83
2022/11/27 09:02:00;;;;;;;;;;;19.60;99.90;;;;;;4978078;28;19926;-84
2022/11/27 09:04:27;;;;;;;;;;;19.70;99.90;;;;;;4977498;28;19926;-83
2022/11/27 09:06:54;;;;;;;;;;;19.70;99.90;;;;;;4976579;28;19926;-85
2022/11/27 09:09:21;;;;;;;;;;;19.30;99.90;;;;;;4975821;28;19955;-84
2022/11/27 09:11:49;;;;;;;;;;;19.40;99.90;;;;;;4975884;28;19970;-84
2022/11/27 09:14:16;;;;;;;;;;;19.80;99.90;;;;;;4975899;28;19933;-85
2022/11/27 09:16:42;;;;;;;;;;;19.70;99.90;;;;;;4984125;28;19930;-85
2022/11/27 09:19:10;;;;;;;;;;;20.30;99.90;;;;;;4984433;28;19926;-84
2022/11/27 09:21:37;;;;;;;;;;;19.90;99.90;;;;;;4987902;28;19927;-84
2022/11/27 09:24:04;;;;;;;;;;;19.90;99.90;;;;;;4985888;28;19933;-84
2022/11/27 09:26:31;;;;;;;;;;;19.90;99.90;;;;;;4982421;28;19933;-85
2022/11/27 09:28:59;;;;;;;;;;;19.90;99.90;;;;;;4980864;28;19933;-86
2022/11/27 09:31:26;;;;;;;;;;;19.80;99.90;;;;;;4980015;28;19926;-85
2022/11/27 09:33:52;;;;;;;;;;;20.90;99.90;;;;;;4979696;28;19926;-85
2022/11/27 09:36:20;;;;;;;;;;;20.00;99.90;;;;;;4982007;28;20357;-82
2022/11/27 09:38:46;;;;;;;;;;;19.80;99.90;;;;;;4981704;28;20382;-81
2022/11/27 09:41:21;;;;;;;;;;;19.60;99.90;;;;;;4981513;28;19930;-82
2022/11/27 09:43:57;;;;;;;;;;;19.80;99.90;;;;;;4979677;28;19926;-82
2022/11/27 09:46:27;;;;;;;;;;;19.80;99.90;;;;;;4980563;28;19926;-82
2022/11/27 09:48:56;;;;;;;;;;;19.90;99.90;;;;;;4983995;28;19926;-81
2022/11/27 09:51:26;;;;;;;;;;;19.90;99.90;;;;;;4983058;28;19937;-81
2022/11/27 09:53:58;;;;;;;;;;;19.90;99.90;;;;;;4984414;28;19926;-83
2022/11/27 09:56:28;;;;;;;;;;;19.90;99.90;;;;;;4981557;28;19933;-81
2022/11/27 09:58:57;;;;;;;;;;;19.90;99.90;;;;;;4982150;28;19933;-81
2022/11/27 10:01:27;;;;;;;;;;;19.90;99.90;;;;;;4981274;28;20016;-82
2022/11/27 10:03:57;;;;;;;;;;;19.90;99.90;;;;;;4979036;28;20042;-81
2022/11/27 10:06:29;;;;;;;;;;;19.90;99.90;;;;;;4980462;28;19926;-82
2022/11/27 10:09:01;;;;;;;;;;;19.90;99.90;;;;;;4982038;28;19926;-82
2022/11/27 10:11:34;;;;;;;;;;;19.90;99.90;;;;;;4981630;28;19973;-83
2022/11/27 10:14:07;;;;;;;;;;;19.90;99.90;;;;;;4981406;28;19926;-83
2022/11/27 10:16:40;;;;;;;;;;;19.90;99.90;;;;;;4981372;28;19927;-83
2022/11/27 10:19:23;;;;;;;;;;;19.90;99.90;;;;;;4982520;28;19973;-83
2022/11/27 10:21:55;;;;;;;;;;;19.90;99.90;;;;;;4979000;28;19926;-83
2022/11/27 10:24:28;;;;;;;;;;;19.90;99.90;;;;;;4981495;28;19926;-83
2022/11/27 10:26:57;;;;;;;;;;;19.90;99.90;;;;;;4986362;28;19926;-84
2022/11/27 10:29:30;;;;;;;;;;;19.90;99.90;;;;;;4984762;28;20044;-83
2022/11/27 10:32:00;;;;;;;;;;;19.90;99.90;;;;;;4984589;28;19926;-84
2022/11/27 10:34:38;;;;;;;;;;;19.90;99.90;;;;;;4981778;28;19926;-84
2022/11/27 10:37:08;;;;;;;;;;;19.90;99.90;;;;;;4980111;28;19926;-84
2022/11/27 10:39:39;;;;;;;;;;;19.90;99.90;;;;;;4979690;28;19933;-84
2022/11/27 10:42:12;;;;;;;;;;;19.80;99.90;;;;;;4979637;28;19926;-82
2022/11/27 10:44:41;;;;;;;;;;;19.80;99.90;;;;;;4978842;28;19926;-83
2022/11/27 10:47:14;;;;;;;;;;;19.80;99.90;;;;;;4978826;28;19926;-84
2022/11/27 10:49:42;;;;;;;;;;;19.80;99.90;;;;;;4978967;28;20306;-84
2022/11/27 10:52:12;;;;;;;;;;;19.90;99.90;;;;;;4979305;28;19934;-85
2022/11/27 10:54:39;;;;;;;;;;;19.80;99.90;;;;;;4978950;28;19962;-84
2022/11/27 10:57:24;;;;;;;;;;;19.80;99.90;;;;;;4979350;28;20000;-84
2022/11/27 10:59:58;;;;;;;;;;;19.80;99.90;;;;;;4977942;28;19926;-84
2022/11/27 11:02:29;;;;;;;;;;;19.80;99.90;;;;;;4978154;28;20012;-83
2022/11/27 11:05:10;;;;;;;;;;;19.80;99.90;;;;;;4980880;28;20415;-83
2022/11/27 11:07:37;;;;;;;;;;;19.80;99.90;;;;;;4978912;28;19932;-83
2022/11/27 11:10:09;;;;;;;;;;;19.80;99.90;;;;;;4979391;28;19926;-83
2022/11/27 11:12:36;;;;;;;;;;;19.80;99.90;;;;;;4980215;28;20389;-84
2022/11/27 11:15:13;;;;;;;;;;;19.80;99.90;;;;;;4980000;28;19926;-83
2022/11/27 11:17:43;;;;;;;;;;;19.80;99.90;;;;;;4979416;28;19926;-83
2022/11/27 11:20:16;;;;;;;;;;;19.70;99.90;;;;;;4979421;28;19926;-83
2022/11/27 11:22:45;;;;;;;;;;;19.70;99.90;;;;;;4980465;28;19926;-83
2022/11/27 11:25:16;;;;;;;;;;;19.70;99.90;;;;;;4980398;28;19977;-82
2022/11/27 11:27:46;;;;;;;;;;;19.70;99.90;;;;;;4980123;28;19949;-82
2022/11/27 11:30:21;;;;;;;;;;;19.70;99.90;;;;;;4979500;28;19932;-82
2022/11/27 11:33:14;;;;;;;;;;;19.70;99.90;;;;;;4979411;28;19926;-83
2022/11/27 11:35:54;;;;;;;;;;;19.70;99.90;;;;;;4977738;28;19933;-83
2022/11/27 11:38:25;;;;;;;;;;;19.70;99.90;;;;;;4978337;28;19949;-80
2022/11/27 11:40:58;;;;;;;;;;;19.70;99.90;;;;;;4977608;28;19926;-80
2022/11/27 11:43:28;;;;;;;;;;;19.70;99.90;;;;;;4977336;28;19926;-80
2022/11/27 11:46:03;;;;;;;;;;;19.70;99.90;;;;;;4977239;28;19927;-79
2022/11/27 11:48:31;;;;;;;;;;;19.70;99.90;;;;;;4977102;28;20017;-79
2022/11/27 11:51:04;;;;;;;;;;;19.70;99.90;;;;;;4977310;28;19933;-78
2022/11/27 11:53:36;;;;;;;;;;;19.70;99.90;;;;;;4977862;28;20275;-78
2022/11/27 11:56:12;;;;;;;;;;;19.70;99.90;;;;;;4977527;28;19932;-77
2022/11/27 11:58:49;;;;;;;;;;;19.70;99.90;;;;;;4977524;28;19949;-78
2022/11/27 12:01:24;;;;;;;;;;;19.70;99.90;;;;;;4977178;28;20305;-79
2022/11/27 12:04:08;;;;;;;;;;;19.70;99.90;;;;;;4982341;28;20317;-78
2022/11/27 12:06:50;;;;;;;;;;;19.70;99.90;;;;;;4977334;28;20334;-79
2022/11/27 12:09:25;;;;;;;;;;;19.70;99.90;;;;;;4976388;28;20282;-79
2022/11/27 12:12:04;;;;;;;;;;;19.70;99.90;;;;;;4977280;28;20348;-79
2022/11/27 12:14:40;;;;;;;;;;;19.70;99.90;;;;;;4977521;28;20302;-80
2022/11/27 12:17:15;;;;;;;;;;;19.80;99.90;;;;;;4977823;28;20286;-79
2022/11/27 12:19:49;;;;;;;;;;;19.80;99.90;;;;;;4977533;28;19932;-79
2022/11/27 12:22:22;;;;;;;;;;;19.80;99.90;;;;;;4977267;28;19952;-79
2022/11/27 12:24:54;;;;;;;;;;;19.80;99.90;;;;;;4976985;28;19926;-79
2022/11/27 12:27:25;;;;;;;;;;;19.80;99.90;;;;;;4977086;28;19926;-78
2022/11/27 12:29:57;;;;;;;;;;;19.80;99.90;;;;;;4977505;28;20292;-79
2022/11/27 12:32:28;;;;;;;;;;;19.80;99.90;;;;;;4977149;28;19949;-79
2022/11/27 12:35:03;;;;;;;;;;;19.80;99.90;;;;;;4976685;28;19937;-79
2022/11/27 12:37:35;;;;;;;;;;;19.90;99.90;;;;;;4977012;28;19933;-79
2022/11/27 12:40:18;;;;;;;;;;;19.70;99.90;;;;;;4977046;28;19933;-79
2022/11/27 12:42:50;;;;;;;;;;;19.90;99.90;;;;;;4976786;28;19930;-78
2022/11/27 12:45:18;;;;;;;;;;;19.90;99.90;;;;;;4976421;28;19933;-79
2022/11/27 12:47:47;;;;;;;;;;;19.90;99.90;;;;;;4976687;28;19926;-80
2022/11/27 12:50:17;;;;;;;;;;;19.80;99.90;;;;;;4976657;28;19930;-80
2022/11/27 12:52:45;;;;;;;;;;;19.90;99.90;;;;;;4977620;28;19933;-79
2022/11/27 12:55:14;;;;;;;;;;;19.80;99.90;;;;;;4977004;28;20428;-80
2022/11/27 12:57:43;;;;;;;;;;;19.90;99.90;;;;;;4977678;28;20290;-80
2022/11/27 13:00:14;;;;;;;;;;;20.30;99.90;;;;;;4977002;28;19926;-80
2022/11/27 13:02:45;;;;;;;;;;;19.90;99.90;;;;;;4977524;28;19926;-80
2022/11/27 13:05:13;;;;;;;;;;;19.90;99.90;;;;;;4976253;28;20326;-80
2022/11/27 13:07:43;;;;;;;;;;;19.80;99.90;;;;;;4977028;28;19926;-80
2022/11/27 13:10:19;;;;;;;;;;;19.90;99.90;;;;;;4976679;28;19926;-81
2022/11/27 13:12:48;;;;;;;;;;;19.90;99.90;;;;;;4976242;28;19930;-81
2022/11/27 13:15:18;;;;;;;;;;;19.90;99.90;;;;;;4976337;28;19926;-81
2022/11/27 13:17:47;;;;;;;;;;;19.90;99.90;;;;;;4977535;28;20302;-81
2022/11/27 13:20:15;;;;;;;;;;;19.90;99.90;;;;;;4975201;28;20393;-75
2022/11/27 13:22:43;;;;;;;;;;;19.80;99.90;;;;;;4975830;28;20267;-76
2022/11/27 13:25:11;;;;;;;;;;;19.80;99.90;;;;;;4978652;28;19926;-76
2022/11/27 13:27:38;;;;;;;;;;;19.80;99.90;;;;;;4978541;28;19926;-77
2022/11/27 13:30:06;;;;;;;;;;;19.80;99.90;;;;;;4978511;28;19936;-77
2022/11/27 13:32:35;;;;;;;;;;;19.80;99.90;;;;;;4978507;28;19926;-77
2022/11/27 13:35:03;;;;;;;;;;;19.70;99.90;;;;;;4978403;28;19926;-77
2022/11/27 13:37:31;;;;;;;;;;;19.80;99.90;;;;;;4978334;28;19926;-81
2022/11/27 13:40:04;;;;;;;;;;;19.70;99.90;;;;;;4978634;28;19933;-81
2022/11/27 13:42:33;;;;;;;;;;;19.80;99.90;;;;;;4978629;28;19926;-81
2022/11/27 13:45:01;;;;;;;;;;;19.80;99.90;;;;;;4978523;28;19934;-81
2022/11/27 13:47:29;;;;;;;;;;;19.70;99.90;;;;;;4978898;28;19926;-81
2022/11/27 13:50:01;;;;;;;;;;;19.80;99.90;;;;;;4978183;28;20301;-81
2022/11/27 13:52:28;;;;;;;;;;;19.80;99.90;;;;;;4978174;28;20374;-78
2022/11/27 13:54:55;;;;;;;;;;;19.70;99.90;;;;;;4978109;28;19928;-78
2022/11/27 13:57:24;;;;;;;;;;;19.80;99.90;;;;;;4977773;28;20389;-79
2022/11/27 13:59:58;;;;;;;;;;;19.80;99.90;;;;;;4977829;28;20279;-79
2022/11/27 14:02:25;;;;;;;;;;;19.80;99.90;;;;;;4977825;28;19926;-77
2022/11/27 14:04:52;;;;;;;;;;;19.80;99.90;;;;;;4980798;28;19932;-77
2022/11/27 14:07:20;;;;;;;;;;;19.70;99.90;;;;;;4988540;28;20017;-78
2022/11/27 14:09:47;;;;;;;;;;;19.80;99.90;;;;;;4977962;28;20025;-77
2022/11/27 14:12:16;;;;;;;;;;;19.90;99.90;;;;;;4977587;28;20305;-77
2022/11/27 14:14:45;;;;;;;;;;;19.70;99.90;;;;;;4977355;28;20397;-78
2022/11/27 14:17:23;;;;;;;;;;;19.70;99.90;;;;;;4977632;28;19930;-77
2022/11/27 14:19:59;;;;;;;;;;;19.60;99.90;;;;;;4977344;28;20417;-77
2022/11/27 14:22:33;;;;;;;;;;;19.80;99.90;;;;;;4977547;28;19926;-76
2022/11/27 14:24:59;;;;;;;;;;;19.70;99.90;;;;;;4978769;28;19933;-76
2022/11/27 14:27:28;;;;;;;;;;;19.70;99.90;;;;;;4977604;28;20381;-78
2022/11/27 14:29:56;;;;;;;;;;;19.60;99.90;;;;;;4977551;28;20302;-78
2022/11/27 14:32:22;;;;;;;;;;;19.80;99.90;;;;;;4977811;28;19926;-78
2022/11/27 14:34:49;;;;;;;;;;;19.60;99.90;;;;;;4977420;28;19933;-78
2022/11/27 14:37:23;;;;;;;;;;;19.70;99.90;;;;;;4977778;28;19926;-78
2022/11/27 14:39:49;;;;;;;;;;;19.60;99.90;;;;;;4977791;28;19926;-78
2022/11/27 14:42:20;;;;;;;;;;;19.60;99.90;;;;;;4977470;28;19926;-78
2022/11/27 14:44:46;;;;;;;;;;;19.60;99.90;;;;;;4977609;28;19930;-78
2022/11/27 14:47:18;;;;;;;;;;;19.60;99.90;;;;;;4977986;28;20286;-78
2022/11/27 14:49:44;;;;;;;;;;;19.60;99.90;;;;;;4977366;28;19926;-78
2022/11/27 14:52:14;;;;;;;;;;;19.50;99.90;;;;;;4977764;28;19930;-78
2022/11/27 14:54:43;;;;;;;;;;;19.60;99.90;;;;;;4978651;28;20302;-78
2022/11/27 14:57:13;;;;;;;;;;;19.60;99.90;;;;;;4978976;28;19926;-79
2022/11/27 14:59:40;;;;;;;;;;;19.50;99.90;;;;;;4979245;28;19926;-78
2022/11/27 15:02:15;;;;;;;;;;;19.50;99.90;;;;;;4978403;28;20394;-78
2022/11/27 15:04:44;;;;;;;;;;;19.50;99.90;;;;;;4978574;28;19926;-78
2022/11/27 15:07:13;;;;;;;;;;;19.50;99.90;;;;;;4978396;28;19926;-78
2022/11/27 15:09:43;;;;;;;;;;;19.50;99.90;;;;;;4978015;28;19930;-78
2022/11/27 15:12:15;;;;;;;;;;;19.50;99.90;;;;;;4978140;28;19926;-78
2022/11/27 15:14:45;;;;;;;;;;;19.50;99.90;;;;;;4978273;28;19948;-78
2022/11/27 15:17:14;;;;;;;;;;;19.50;99.90;;;;;;4977924;28;19930;-78
2022/11/27 15:19:42;;;;;;;;;;;19.50;99.90;;;;;;4978670;28;19926;-78
2022/11/27 15:22:15;;;;;;;;;;;19.50;99.90;;;;;;4978100;28;19926;-78
2022/11/27 15:24:42;;;;;;;;;;;19.50;99.90;;;;;;4978745;28;19964;-78
2022/11/27 15:27:19;;;;;;;;;;;19.50;99.90;;;;;;4978143;28;19926;-78
2022/11/27 15:29:58;;;;;;;;;;;19.50;99.90;;;;;;4978408;28;20309;-78
2022/11/27 15:32:25;;;;;;;;;;;19.50;99.90;;;;;;4978504;28;19926;-78
2022/11/27 15:34:52;;;;;;;;;;;19.40;99.90;;;;;;4978101;28;19933;-78
2022/11/27 15:37:22;;;;;;;;;;;19.40;99.90;;;;;;4978217;28;19949;-78
2022/11/27 15:39:50;;;;;;;;;;;19.40;99.90;;;;;;4977985;28;19933;-78
2022/11/27 15:42:17;;;;;;;;;;;19.40;99.90;;;;;;4977618;28;19933;-78
2022/11/27 15:44:44;;;;;;;;;;;19.40;99.90;;;;;;4976722;28;19926;-78
2022/11/27 15:47:20;;;;;;;;;;;19.40;99.90;;;;;;4977821;28;19926;-78
2022/11/27 15:49:46;;;;;;;;;;;19.40;99.90;;;;;;4976346;28;20405;-78
2022/11/27 15:52:13;;;;;;;;;;;19.40;99.90;;;;;;4976583;28;19926;-78
2022/11/27 15:54:41;;;;;;;;;;;19.40;99.90;;;;;;4976641;28;19926;-77
2022/11/27 15:57:07;;;;;;;;;;;19.40;99.90;;;;;;4976414;28;19930;-79
2022/11/27 15:59:34;;;;;;;;;;;19.00;99.90;;;;;;4976031;28;19926;-81
2022/11/27 16:02:00;;;;;;;;;;;19.40;99.90;;;;;;4975959;28;19926;-80
2022/11/27 16:04:27;;;;;;;;;;;19.40;99.90;;;;;;4975821;28;19937;-79
2022/11/27 16:06:54;;;;;;;;;;;19.40;99.90;;;;;;4976060;28;19926;-80
2022/11/27 16:09:20;;;;;;;;;;;19.40;99.90;;;;;;4975811;28;19933;-80
2022/11/27 16:11:48;;;;;;;;;;;19.40;99.90;;;;;;4975783;28;19930;-80
2022/11/27 16:14:16;;;;;;;;;;;19.30;99.90;;;;;;4975766;28;19926;-80
2022/11/27 16:16:42;;;;;;;;;;;19.30;99.90;;;;;;4975732;28;19926;-80
2022/11/27 16:19:11;;;;;;;;;;;19.50;99.90;;;;;;4975746;28;19933;-80
2022/11/27 16:21:38;;;;;;;;;;;19.40;99.90;;;;;;4975481;28;20024;-80
2022/11/27 16:24:06;;;;;;;;;;;19.40;99.90;;;;;;4975724;28;19926;-80
2022/11/27 16:26:32;;;;;;;;;;;19.40;99.90;;;;;;4975637;28;19926;-80
2022/11/27 16:29:00;;;;;;;;;;;19.30;99.90;;;;;;4975299;28;20405;-80
2022/11/27 16:31:27;;;;;;;;;;;19.40;99.90;;;;;;4975865;28;19939;-80
2022/11/27 16:33:53;;;;;;;;;;;19.30;99.90;;;;;;4975560;28;20298;-79
2022/11/27 16:36:21;;;;;;;;;;;19.30;99.90;;;;;;4975135;28;20390;-79
2022/11/27 16:38:48;;;;;;;;;;;19.30;99.90;;;;;;4975557;28;19930;-79
2022/11/27 16:41:15;;;;;;;;;;;19.30;99.90;;;;;;4975356;28;19925;-79
2022/11/27 16:43:43;;;;;;;;;;;19.30;99.90;;;;;;4975460;28;20293;-79
2022/11/27 16:46:12;;;;;;;;;;;19.30;99.90;;;;;;4975502;28;19926;-80
2022/11/27 16:48:39;;;;;;;;;;;19.30;99.90;;;;;;4975409;28;19933;-80
2022/11/27 16:51:07;;;;;;;;;;;19.30;99.90;;;;;;4975532;28;20021;-80
2022/11/27 16:53:36;;;;;;;;;;;19.30;99.90;;;;;;4975419;28;19926;-80
2022/11/27 16:56:03;;;;;;;;;;;19.30;99.90;;;;;;4975370;28;20294;-80
2022/11/27 16:58:32;;;;;;;;;;;19.30;99.90;;;;;;4979191;28;19926;-80
2022/11/27 17:00:59;;;;;;;;;;;19.30;99.90;;;;;;4979428;28;19933;-80
2022/11/27 17:03:27;;;;;;;;;;;19.30;99.90;;;;;;4979200;28;19926;-79
2022/11/27 17:05:53;;;;;;;;;;;19.30;99.90;;;;;;4978804;28;20390;-80
2022/11/27 17:08:20;;;;;;;;;;;19.30;99.90;;;;;;4979282;28;19933;-80
2022/11/27 17:10:46;;;;;;;;;;;19.30;99.90;;;;;;4979301;28;19927;-80
2022/11/27 17:13:13;;;;;;;;;;;19.30;99.90;;;;;;4979400;28;19926;-81
2022/11/27 17:15:40;;;;;;;;;;;19.30;99.90;;;;;;4979590;28;19934;-81
2022/11/27 17:18:06;;;;;;;;;;;19.30;99.90;;;;;;4980587;28;19949;-80
2022/11/27 17:20:34;;;;;;;;;;;19.40;99.90;;;;;;4982349;28;19933;-79
2022/11/27 17:23:01;;;;;;;;;;;19.30;99.90;;;;;;4980057;28;19933;-79
2022/11/27 17:25:29;;;;;;;;;;;19.20;99.90;;;;;;4979451;28;19930;-80
2022/11/27 17:27:55;;;;;;;;;;;19.40;99.90;;;;;;4979167;28;20271;-80
2022/11/27 17:30:22;;;;;;;;;;;19.30;99.90;;;;;;4979201;28;19949;-80
2022/11/27 17:32:48;;;;;;;;;;;19.20;99.90;;;;;;4979303;28;19926;-80
2022/11/27 17:35:15;;;;;;;;;;;19.20;99.90;;;;;;4979031;28;19926;-80
2022/11/27 17:37:44;;;;;;;;;;;19.30;99.90;;;;;;4978985;28;19949;-80
2022/11/27 17:40:11;;;;;;;;;;;19.30;99.90;;;;;;4979036;28;19926;-80
2022/11/27 17:42:37;;;;;;;;;;;19.40;99.90;;;;;;4978899;28;19937;-80
2022/11/27 17:45:05;;;;;;;;;;;19.40;99.90;;;;;;4979526;28;20386;-80
2022/11/27 17:47:32;;;;;;;;;;;19.50;99.90;;;;;;4979749;28;20381;-81
2022/11/27 17:49:59;;;;;;;;;;;19.40;99.90;;;;;;4979170;28;20370;-79
2022/11/27 17:52:26;;;;;;;;;;;19.30;99.90;;;;;;4979312;28;19933;-81
2022/11/27 17:54:54;;;;;;;;;;;19.60;99.90;;;;;;4979084;28;19926;-82
2022/11/27 17:57:20;;;;;;;;;;;19.50;99.90;;;;;;4979222;28;20297;-81
2022/11/27 17:59:47;;;;;;;;;;;19.60;99.90;;;;;;4978830;28;19926;-82
2022/11/27 18:02:14;;;;;;;;;;;19.50;99.90;;;;;;4978635;28;20366;-83
2022/11/27 18:04:40;;;;;;;;;;;19.60;99.90;;;;;;4979020;28;19933;-81
2022/11/27 18:07:07;;;;;;;;;;;19.30;99.90;;;;;;4978719;28;20413;-82
2022/11/27 18:09:33;;;;;;;;;;;19.60;99.90;;;;;;4980009;28;19925;-85
2022/11/27 18:12:01;;;;;;;;;;;19.80;99.90;;;;;;4978766;28;20279;-84
2022/11/27 18:14:28;;;;;;;;;;;19.60;99.90;;;;;;4978824;28;19930;-84
2022/11/27 18:16:55;;;;;;;;;;;19.70;99.90;;;;;;4978574;28;19977;-84
2022/11/27 18:19:21;;;;;;;;;;;19.70;99.90;;;;;;4979101;28;19933;-84
2022/11/27 18:21:48;;;;;;;;;;;20.00;99.90;;;;;;4978357;28;20301;-84
2022/11/27 18:24:15;;;;;;;;;;;20.00;99.90;;;;;;4978093;28;19933;-84
2022/11/27 18:26:41;;;;;;;;;;;19.50;99.90;;;;;;4978402;28;19949;-84
2022/11/27 18:29:10;;;;;;;;;;;20.40;99.90;;;;;;4978403;28;19933;-84
2022/11/27 18:31:37;;;;;;;;;;;19.70;99.90;;;;;;4978280;28;19933;-84
2022/11/27 18:34:04;;;;;;;;;;;19.60;99.90;;;;;;4978200;28;19934;-84
2022/11/27 18:36:31;;;;;;;;;;;19.40;99.90;;;;;;4978350;28;19948;-84
2022/11/27 18:38:57;;;;;;;;;;;19.60;99.90;;;;;;4977767;28;20301;-84
2022/11/27 18:41:26;;;;;;;;;;;19.80;99.90;;;;;;4978300;28;19930;-85
2022/11/27 18:43:53;;;;;;;;;;;20.50;99.90;;;;;;4978433;28;19973;-85
2022/11/27 18:46:21;;;;;;;;;;;19.60;99.90;;;;;;4977790;28;20385;-85
2022/11/27 18:48:48;;;;;;;;;;;19.30;99.90;;;;;;4978168;28;19941;-85
2022/11/27 18:51:16;;;;;;;;;;;19.90;99.90;;;;;;4978087;28;19926;-84
2022/11/27 18:53:43;;;;;;;;;;;20.10;99.90;;;;;;4977233;28;19933;-85
2022/11/27 18:56:11;;;;;;;;;;;19.70;99.90;;;;;;4979140;28;19926;-85
2022/11/27 18:58:38;;;;;;;;;;;19.70;99.90;;;;;;4979544;28;20025;-85
2022/11/27 19:01:07;;;;;;;;;;;19.60;99.90;;;;;;4979502;28;19933;-85
2022/11/27 19:03:35;;;;;;;;;;;19.90;99.90;;;;;;4979358;28;19926;-84
2022/11/27 19:06:02;;;;;;;;;;;19.70;99.90;;;;;;4979590;28;20415;-85
2022/11/27 19:08:29;;;;;;;;;;;19.90;99.90;;;;;;4980727;28;19926;-85
2022/11/27 19:10:59;;;;;;;;;;;19.60;99.90;;;;;;4979396;28;19926;-84
2022/11/27 19:13:26;;;;;;;;;;;19.90;99.90;;;;;;4979053;28;19926;-84
2022/11/27 19:15:53;;;;;;;;;;;21.30;99.90;;;;;;4979363;28;19989;-83
2022/11/27 19:18:19;;;;;;;;;;;19.90;99.90;;;;;;4978398;28;19930;-85
2022/11/27 19:20:47;;;;;;;;;;;20.00;99.90;;;;;;4977348;28;20374;-85
2022/11/27 19:23:15;;;;;;;;;;;20.40;99.90;;;;;;4979271;28;19926;-85
2022/11/27 19:25:42;;;;;;;;;;;19.80;99.90;;;;;;4978708;28;19926;-86
2022/11/27 19:28:09;;;;;;;;;;;20.30;99.90;;;;;;4976995;28;19926;-86
2022/11/27 19:30:37;;;;;;;;;;;20.20;99.90;;;;;;4977399;28;19926;-84
2022/11/27 19:33:03;;;;;;;;;;;20.00;99.90;;;;;;4980105;28;19926;-82
2022/11/27 19:35:30;;;;;;;;;;;20.10;99.90;;;;;;4979396;28;20386;-81
2022/11/27 19:37:58;;;;;;;;;;;20.10;99.90;;;;;;4979644;28;19952;-82
2022/11/27 19:40:26;;;;;;;;;;;20.10;99.90;;;;;;4979187;28;19934;-80
2022/11/27 19:42:52;;;;;;;;;;;20.10;99.90;;;;;;4979074;28;19926;-80
2022/11/27 19:45:19;;;;;;;;;;;20.10;99.90;;;;;;4979511;28;19930;-81
2022/11/27 19:47:46;;;;;;;;;;;20.10;99.90;;;;;;4979097;28;19941;-81
2022/11/27 19:50:13;;;;;;;;;;;20.20;99.90;;;;;;4979304;28;19926;-81
2022/11/27 19:52:39;;;;;;;;;;;20.20;99.90;;;;;;4978838;28;19930;-81
2022/11/27 19:55:09;;;;;;;;;;;20.10;99.90;;;;;;4978467;28;21401;-80
2022/11/27 19:57:37;;;;;;;;;;;20.10;99.90;;;;;;4978824;28;19949;-80
2022/11/27 20:00:03;;;;;;;;;;;20.10;99.90;;;;;;4979004;28;19926;-80
2022/11/27 20:02:30;;;;;;;;;;;20.00;99.90;;;;;;4980771;28;20333;-83
2022/11/27 20:04:57;;;;;;;;;;;20.00;99.90;;;;;;4978243;28;19930;-81
2022/11/27 20:07:23;;;;;;;;;;;20.00;99.90;;;;;;4978538;28;19926;-80
2022/11/27 20:09:51;;;;;;;;;;;20.00;99.90;;;;;;4979094;28;19933;-80
2022/11/27 20:12:18;;;;;;;;;;;20.00;99.90;;;;;;4977803;28;19933;-79
2022/11/27 20:14:45;;;;;;;;;;;19.90;99.90;;;;;;4978772;28;20305;-79
2022/11/27 20:17:12;;;;;;;;;;;19.90;99.90;;;;;;4980050;28;19930;-80
2022/11/27 20:19:38;;;;;;;;;;;19.90;99.90;;;;;;4980255;28;19933;-79
2022/11/27 20:22:05;;;;;;;;;;;20.00;99.90;;;;;;4980196;28;19926;-79
2022/11/27 20:24:31;;;;;;;;;;;20.00;99.90;;;;;;4979981;28;19934;-80
2022/11/27 20:26:58;;;;;;;;;;;19.90;99.90;;;;;;4980449;28;19927;-80